Aviation Digital Data Service (ADDS)

Output produced by METARs form (1755 UTC 20 December 2014)
found at http://aviationweather.gov/adds/metars/
 
METAR text: KSPB 201739Z AUTO 15007KT 5SM -RA BR OVC016 10/08 A2969 RMK AO2 P0014 T01000083
Conditions at: KSPB (SCAPPOOSE , OR, US) observed 1739 UTC 20 December 2014
Temperature: 10.0°C (50°F)
Dewpoint: 8.3°C (47°F) [RH = 89%]
Pressure (altimeter): 29.69 inches Hg (1005.5 mb)
Winds: from the SSE (150 degrees) at 8 MPH (7 knots; 3.6 m/s)
Visibility: 5 miles (8 km)
Ceiling: 1600 feet AGL
Clouds: overcast cloud deck at 1600 feet AGL
Weather: -RA BR  (light rain, mist)

METAR text: KSPB 201653Z AUTO 14006KT 7SM -RA OVC013 09/08 A2969 RMK AO2 SLP052 P0012 T00890078
Conditions at: KSPB (SCAPPOOSE , OR, US) observed 1653 UTC 20 December 2014
Temperature: 8.9°C (48°F)
Dewpoint: 7.8°C (46°F) [RH = 93%]
Pressure (altimeter): 29.69 inches Hg (1005.5 mb)
[Sea-level pressure: 1005.2 mb]
Winds: from the SE (140 degrees) at 7 MPH (6 knots; 3.1 m/s)
Visibility: 7 miles (11 km)
Ceiling: 1300 feet AGL
Clouds: overcast cloud deck at 1300 feet AGL
Weather: -RA  (light rain)

METAR text: KSPB 201629Z AUTO 13009KT 7SM -RA OVC015 08/07 A2969 RMK AO2 P0007 T00830072
Conditions at: KSPB (SCAPPOOSE , OR, US) observed 1629 UTC 20 December 2014
Temperature: 8.3°C (47°F)
Dewpoint: 7.2°C (45°F) [RH = 93%]
Pressure (altimeter): 29.69 inches Hg (1005.5 mb)
Winds: from the SE (130 degrees) at 10 MPH (9 knots; 4.7 m/s)
Visibility: 7 miles (11 km)
Ceiling: 1500 feet AGL
Clouds: overcast cloud deck at 1500 feet AGL
Weather: -RA  (light rain)